Time;durP1;ratioP1;P1;durP2;ratioP2;P2;SDS_P1;SDS_P2;PMS_P1;PMS_P2;Temp;Humidity;BMP_temperature;BMP_pressure;BME280_temperature;BME280_humidity;BME280_pressure;Samples;Min_cycle;Max_cycle;Signal;HPM_P1;HPM_P2
2023/08/28 00:01:42;;;;;;;1.40;1.30;;;;;;;22.18;47.08;100942.66;5052849;28;20057;-61
2023/08/28 00:04:08;;;;;;;1.60;1.50;;;;;;;22.14;47.18;100938.63;5052571;28;20029;-61
2023/08/28 00:06:33;;;;;;;3.53;1.95;;;;;;;22.14;46.83;100938.63;5051502;28;20032;-61
2023/08/28 00:08:59;;;;;;;2.38;1.45;;;;;;;22.13;46.82;100938.84;5051155;28;20029;-61
2023/08/28 00:11:24;;;;;;;2.70;1.55;;;;;;;22.10;47.02;100937.34;5052200;28;20033;-61
2023/08/28 00:13:50;;;;;;;2.08;1.48;;;;;;;22.10;46.48;100936.50;5052707;28;20400;-61
2023/08/28 00:16:15;;;;;;;2.25;1.42;;;;;;;22.09;47.29;100941.13;5051309;28;20033;-63
2023/08/28 00:18:40;;;;;;;2.88;1.63;;;;;;;22.11;46.81;100932.75;5051338;28;20029;-63
2023/08/28 00:21:07;;;;;;;2.85;1.40;;;;;;;22.09;46.92;100929.34;5051235;28;20033;-63
2023/08/28 00:23:32;;;;;;;1.40;1.30;;;;;;;22.10;47.30;100931.06;5051155;28;20040;-62
2023/08/28 00:25:59;;;;;;;1.60;1.50;;;;;;;22.09;47.22;100922.00;5051074;28;20029;-62
2023/08/28 00:28:24;;;;;;;3.45;1.50;;;;;;;22.09;47.09;100916.56;5050895;28;20021;-63
2023/08/28 00:30:50;;;;;;;2.38;1.50;;;;;;;22.10;46.70;100915.53;5051121;28;20040;-62
2023/08/28 00:33:15;;;;;;;1.98;1.60;;;;;;;22.13;47.37;100917.84;5051006;28;20044;-63
2023/08/28 00:35:42;;;;;;;1.92;1.48;;;;;;;22.13;46.23;100909.66;5051303;28;20493;-62
2023/08/28 00:38:09;;;;;;;3.40;1.52;;;;;;;22.12;46.32;100912.59;5052366;28;20033;-62
2023/08/28 00:40:40;;;;;;;1.38;1.27;;;;;;;22.12;47.37;100918.88;5051359;28;20036;-62
2023/08/28 00:43:09;;;;;;;1.60;1.50;;;;;;;22.10;47.23;100912.81;5052650;28;20057;-63
2023/08/28 00:45:40;;;;;;;2.95;1.30;;;;;;;22.09;47.25;100908.38;5051105;28;20029;-63
2023/08/28 00:48:06;;;;;;;2.65;1.85;;;;;;;22.07;47.27;100915.94;5034824;28;20411;-62
2023/08/28 00:50:32;;;;;;;1.90;1.58;;;;;;;22.02;46.19;100919.28;5052648;28;20116;-62
2023/08/28 00:52:57;;;;;;;2.38;1.42;;;;;;;22.02;46.93;100918.44;5034745;28;20025;-63
2023/08/28 00:55:23;;;;;;;4.57;1.50;;;;;;;21.99;47.23;100921.56;5053644;28;20033;-63
2023/08/28 00:57:48;;;;;;;4.68;1.70;;;;;;;21.96;46.82;100924.69;5055227;28;20028;-62
2023/08/28 01:00:15;;;;;;;2.08;1.33;;;;;;;21.94;46.70;100915.88;5056179;28;20046;-63
2023/08/28 01:02:40;;;;;;;1.67;1.52;;;;;;;21.89;47.25;100907.41;5056154;28;20033;-63
2023/08/28 01:05:06;;;;;;;1.38;1.27;;;;;;;21.87;46.44;100909.50;5054634;28;20040;-63
2023/08/28 01:07:50;;;;;;;1.45;1.30;;;;;;;21.83;46.44;100902.75;5048035;28;20127;-62
2023/08/28 01:10:22;;;;;;;1.20;1.10;;;;;;;21.78;47.22;100899.75;5054438;28;20029;-63
2023/08/28 01:13:04;;;;;;;1.63;1.05;;;;;;;21.75;46.36;100900.16;5054244;28;20040;-62
2023/08/28 01:15:31;;;;;;;3.60;1.60;;;;;;;21.68;46.32;100902.88;5053995;28;20045;-63
2023/08/28 01:18:02;;;;;;;1.35;0.98;;;;;;;21.63;47.00;100907.22;5054551;28;20028;-63
2023/08/28 01:20:33;;;;;;;6.13;1.75;;;;;;;21.60;46.92;100899.44;5054891;28;20037;-63
2023/08/28 01:23:06;;;;;;;1.70;1.55;;;;;;;21.54;46.61;100902.97;5055718;28;20029;-62
2023/08/28 01:25:32;;;;;;;1.70;1.45;;;;;;;21.50;46.85;100897.06;5054492;28;20491;-61
2023/08/28 01:27:59;;;;;;;2.88;1.40;;;;;;;21.46;47.53;100907.53;5038093;28;20025;-61
2023/08/28 01:30:24;;;;;;;1.95;1.48;;;;;;;21.42;46.91;100900.78;5054652;28;20048;-61
2023/08/28 01:32:50;;;;;;;1.52;1.40;;;;;;;21.41;47.47;100904.53;5054525;28;20037;-61
2023/08/28 01:35:19;;;;;;;1.73;1.60;;;;;;;21.38;46.81;100904.09;5054467;28;20033;-61
2023/08/28 01:38:06;;;;;;;2.30;1.80;;;;;;;21.35;47.27;100902.63;5038623;28;20118;-61
2023/08/28 01:40:45;;;;;;;1.35;1.25;;;;;;;21.32;47.15;100900.28;5055641;28;20082;-61
2023/08/28 01:43:12;;;;;;;2.30;1.63;;;;;;;21.28;46.97;100904.44;5067528;28;20067;-61
2023/08/28 01:45:38;;;;;;;1.52;1.35;;;;;;;21.24;47.55;100908.63;5075382;28;20033;-61
2023/08/28 01:48:07;;;;;;;1.30;1.15;;;;;;;21.23;48.09;100912.38;5057580;28;20437;-61
2023/08/28 01:50:32;;;;;;;5.78;1.60;;;;;;;21.22;46.83;100899.75;5074046;28;20041;-61
2023/08/28 01:52:58;;;;;;;2.70;1.75;;;;;;;21.22;47.12;100905.22;5074864;28;20059;-61
2023/08/28 01:56:08;;;;;;;1.30;1.17;;;;;;;21.20;47.28;100890.09;5074423;28;20036;-61
2023/08/28 01:58:39;;;;;;;3.50;1.55;;;;;;;21.19;47.31;100893.88;5063838;28;20029;-61
2023/08/28 02:01:05;;;;;;;6.03;1.48;;;;;;;21.19;47.70;100900.16;5073376;28;20451;-61
2023/08/28 02:03:30;;;;;;;1.88;1.52;;;;;;;21.18;47.28;100898.50;5074455;28;20139;-61
2023/08/28 02:05:56;;;;;;;5.75;1.48;;;;;;;21.19;47.65;100911.06;5055067;28;20036;-61
2023/08/28 02:08:21;;;;;;;3.75;1.30;;;;;;;21.16;47.52;100906.00;5054210;28;20053;-61
2023/08/28 02:10:47;;;;;;;7.30;1.52;;;;;;;21.18;47.33;100906.66;5054823;28;20492;-61
2023/08/28 02:13:12;;;;;;;3.70;1.45;;;;;;;21.18;47.41;100901.22;5051768;28;20056;-61
2023/08/28 02:15:38;;;;;;;1.23;1.13;;;;;;;21.16;47.40;100894.28;5054461;28;20112;-61
2023/08/28 02:18:04;;;;;;;3.60;1.40;;;;;;;21.19;47.18;100894.72;5053492;28;20037;-61
2023/08/28 02:20:29;;;;;;;3.05;1.35;;;;;;;21.16;47.87;100886.91;5036667;28;20025;-63
2023/08/28 02:22:55;;;;;;;1.63;1.48;;;;;;;21.16;47.78;100878.75;5036365;28;20156;-61
2023/08/28 02:25:23;;;;;;;2.08;1.50;;;;;;;21.18;47.52;100884.88;5053123;28;20029;-61
2023/08/28 02:27:48;;;;;;;2.67;1.48;;;;;;;21.16;47.95;100888.84;5053340;28;20045;-61
2023/08/28 02:30:14;;;;;;;1.92;1.40;;;;;;;21.18;48.15;100897.63;5052727;28;20048;-61
2023/08/28 02:32:39;;;;;;;5.10;1.50;;;;;;;21.16;47.24;100889.66;5034968;28;20029;-61
2023/08/28 02:35:05;;;;;;;2.28;1.73;;;;;;;21.16;47.38;100894.28;5053993;28;20480;-61
2023/08/28 02:37:30;;;;;;;2.78;1.33;;;;;;;21.12;47.52;100891.09;5052800;28;20029;-61
2023/08/28 02:39:56;;;;;;;1.77;1.65;;;;;;;21.12;46.97;100902.00;5053936;28;20058;-61
2023/08/28 02:42:21;;;;;;;5.63;2.38;;;;;;;21.11;48.22;100889.41;5053125;28;20032;-61
2023/08/28 02:44:46;;;;;;;2.45;1.27;;;;;;;21.11;47.81;100892.13;5054194;28;20112;-61
2023/08/28 02:47:12;;;;;;;2.85;1.70;;;;;;;21.09;47.35;100894.22;5052823;28;20060;-61
2023/08/28 02:49:37;;;;;;;1.95;1.27;;;;;;;21.10;47.70;100895.91;5054433;28;20017;-61
2023/08/28 02:52:02;;;;;;;2.67;1.60;;;;;;;21.12;47.79;100910.16;5053569;28;20036;-61
2023/08/28 02:54:28;;;;;;;3.05;1.35;;;;;;;21.10;47.43;100906.81;5051956;28;20077;-61
2023/08/28 02:56:53;;;;;;;1.75;1.40;;;;;;;21.11;47.79;100907.63;5052223;28;20405;-61
2023/08/28 02:59:19;;;;;;;2.35;1.70;;;;;;;21.10;47.50;100912.25;5035658;28;20090;-61
2023/08/28 03:01:44;;;;;;;2.42;1.45;;;;;;;21.08;47.97;100919.75;5053633;28;20538;-61
2023/08/28 03:04:09;;;;;;;7.57;1.65;;;;;;;21.05;47.78;100925.56;5053113;28;20400;-61
2023/08/28 03:06:38;;;;;;;2.67;1.42;;;;;;;21.05;47.89;100914.66;5053167;28;20061;-61
2023/08/28 03:09:06;;;;;;;5.20;1.55;;;;;;;21.05;48.04;100922.84;5053432;28;20056;-61
2023/08/28 03:11:32;;;;;;;1.67;1.58;;;;;;;21.06;48.03;100924.53;5052526;28;20028;-61
2023/08/28 03:13:57;;;;;;;5.90;1.75;;;;;;;21.05;47.61;100933.72;5052723;28;20029;-61
2023/08/28 03:16:22;;;;;;;5.13;1.77;;;;;;;21.05;47.44;100931.00;5053271;28;20110;-61
2023/08/28 03:18:48;;;;;;;4.75;2.03;;;;;;;21.03;48.50;100933.09;5051591;28;20052;-61
2023/08/28 03:21:14;;;;;;;4.80;1.40;;;;;;;21.03;47.83;100929.53;5051900;28;20076;-61
2023/08/28 03:23:40;;;;;;;3.17;1.60;;;;;;;21.01;47.42;100926.16;5052981;28;20052;-61
2023/08/28 03:26:05;;;;;;;5.38;3.28;;;;;;;21.02;47.34;100936.84;5053083;28;20048;-61
2023/08/28 03:28:30;;;;;;;6.88;2.67;;;;;;;21.02;48.06;100947.75;5053069;28;20029;-61
2023/08/28 03:30:59;;;;;;;2.40;2.20;;;;;;;21.01;47.27;100942.50;5053261;28;20029;-61
2023/08/28 03:33:25;;;;;;;3.08;1.88;;;;;;;20.97;48.25;100946.63;5051913;28;20037;-61
2023/08/28 03:35:51;;;;;;;4.18;1.85;;;;;;;20.95;47.72;100955.00;5052885;28;20032;-61
2023/08/28 03:38:17;;;;;;;3.00;1.40;;;;;;;20.93;48.16;100954.38;5053981;28;20029;-65
2023/08/28 03:40:43;;;;;;;1.85;1.30;;;;;;;20.90;47.49;100960.19;5053328;28;20041;-61
2023/08/28 03:43:09;;;;;;;5.22;1.55;;;;;;;20.85;47.88;100952.59;5036486;28;20025;-65
2023/08/28 03:45:34;;;;;;;4.75;1.60;;;;;;;20.87;48.33;100955.13;5053429;28;20447;-60
2023/08/28 03:48:00;;;;;;;1.58;1.45;;;;;;;20.87;48.06;100960.59;5053524;28;20370;-61
2023/08/28 03:50:28;;;;;;;2.08;1.50;;;;;;;20.88;48.04;100951.38;5053135;28;20128;-61
2023/08/28 03:52:55;;;;;;;1.60;1.17;;;;;;;20.87;48.04;100957.84;5052249;28;20029;-61
2023/08/28 03:55:20;;;;;;;2.30;1.50;;;;;;;20.89;48.40;100962.06;5051500;28;20033;-61
2023/08/28 03:57:45;;;;;;;3.67;1.38;;;;;;;20.91;48.19;100959.16;5052877;28;20412;-61
2023/08/28 04:00:13;;;;;;;4.47;1.63;;;;;;;20.94;48.16;100961.47;5051616;28;20080;-61
2023/08/28 04:02:39;;;;;;;3.22;1.67;;;;;;;20.95;48.54;100954.16;5052960;28;20033;-61
2023/08/28 04:05:06;;;;;;;6.75;3.15;;;;;;;20.97;48.52;100954.81;5051389;28;20021;-61
2023/08/28 04:07:34;;;;;;;3.40;2.10;;;;;;;20.98;48.33;100951.91;5052746;28;20025;-61
2023/08/28 04:09:59;;;;;;;3.67;1.52;;;;;;;21.01;48.81;100956.97;5051642;28;20021;-61
2023/08/28 04:12:25;;;;;;;1.90;1.35;;;;;;;21.02;48.38;100947.75;5051107;28;20037;-61
2023/08/28 04:14:50;;;;;;;1.85;1.13;;;;;;;21.04;47.73;100945.69;5052629;28;20060;-61
2023/08/28 04:17:16;;;;;;;1.90;1.52;;;;;;;21.05;48.13;100947.34;5051162;28;20530;-61
2023/08/28 04:19:42;;;;;;;4.75;1.95;;;;;;;21.04;48.54;100940.25;5051426;28;20445;-61
2023/08/28 04:22:07;;;;;;;4.30;1.88;;;;;;;21.05;48.34;100936.44;5052385;28;20045;-61
2023/08/28 04:24:32;;;;;;;3.25;1.92;;;;;;;21.03;48.53;100927.66;5051080;28;20385;-61
2023/08/28 04:26:58;;;;;;;3.75;1.30;;;;;;;21.04;47.93;100932.06;5051150;28;20053;-61
2023/08/28 04:29:23;;;;;;;3.50;1.40;;;;;;;21.04;47.97;100929.34;5052865;28;20037;-61
2023/08/28 04:31:49;;;;;;;1.77;1.50;;;;;;;21.06;48.38;100926.41;5056745;28;20129;-61
2023/08/28 04:34:15;;;;;;;3.88;1.58;;;;;;;21.06;48.06;100926.41;5055109;28;20033;-63
2023/08/28 04:36:40;;;;;;;6.30;1.27;;;;;;;21.01;48.18;100917.97;5056339;28;20033;-61
2023/08/28 04:39:05;;;;;;;2.58;1.35;;;;;;;21.00;48.09;100922.59;5038308;28;20044;-61
2023/08/28 04:41:31;;;;;;;2.22;1.75;;;;;;;20.99;48.20;100909.16;5054928;28;20033;-61
2023/08/28 04:43:56;;;;;;;3.85;1.40;;;;;;;20.98;48.00;100905.59;5054831;28;20150;-61
2023/08/28 04:46:22;;;;;;;2.60;1.50;;;;;;;20.95;47.95;100911.44;5038393;28;20104;-61
2023/08/28 04:48:48;;;;;;;7.28;1.60;;;;;;;20.93;48.42;100910.78;5055539;28;20508;-61
2023/08/28 04:51:13;;;;;;;1.95;1.58;;;;;;;20.94;48.26;100912.47;5054851;28;20033;-62
2023/08/28 04:53:39;;;;;;;3.78;1.92;;;;;;;20.93;47.79;100916.25;5054768;28;20044;-62
2023/08/28 04:56:04;;;;;;;4.78;1.35;;;;;;;20.89;48.14;100914.94;5054904;28;20507;-61
2023/08/28 04:58:30;;;;;;;3.28;1.45;;;;;;;20.88;48.66;100902.38;5054463;28;20512;-61
2023/08/28 05:00:55;;;;;;;6.25;2.33;;;;;;;20.86;47.68;100901.69;5038019;28;20039;-61
2023/08/28 05:03:22;;;;;;;2.78;2.10;;;;;;;20.83;47.83;100896.63;5056179;28;20029;-60
2023/08/28 05:05:48;;;;;;;3.40;2.20;;;;;;;20.82;47.75;100909.44;5055979;28;20033;-61
2023/08/28 05:08:14;;;;;;;5.40;2.60;;;;;;;20.80;48.18;100910.63;5055804;28;20039;-61
2023/08/28 05:10:39;;;;;;;5.10;2.63;;;;;;;20.82;47.87;100919.47;5055519;28;20053;-61
2023/08/28 05:13:05;;;;;;;6.28;2.50;;;;;;;20.84;48.37;100920.97;5055371;28;20562;-61
2023/08/28 05:15:30;;;;;;;6.10;2.30;;;;;;;20.89;48.83;100925.81;5037763;28;20040;-61
2023/08/28 05:17:56;;;;;;;3.08;1.88;;;;;;;20.96;48.23;100928.63;5055453;28;20447;-61
2023/08/28 05:20:21;;;;;;;2.00;1.80;;;;;;;21.03;48.11;100927.66;5055426;28;20028;-61
2023/08/28 05:22:47;;;;;;;6.13;2.00;;;;;;;21.12;48.07;100926.50;5054289;28;20566;-61
2023/08/28 05:25:12;;;;;;;4.25;1.73;;;;;;;21.23;48.45;100928.72;5053987;28;20041;-61
2023/08/28 05:27:38;;;;;;;2.65;1.60;;;;;;;21.35;47.96;100921.69;5055477;28;20404;-61
2023/08/28 05:30:03;;;;;;;5.72;2.40;;;;;;;21.46;47.86;100934.78;5055200;28;20055;-61
2023/08/28 05:32:29;;;;;;;4.97;1.63;;;;;;;21.59;48.39;100923.13;5053913;28;20526;-61
2023/08/28 05:34:57;;;;;;;4.00;1.70;;;;;;;21.72;48.47;100922.41;5053871;28;20037;-61
2023/08/28 05:37:23;;;;;;;3.85;1.90;;;;;;;21.85;48.50;100917.03;5037884;28;20079;-61
2023/08/28 05:39:49;;;;;;;4.70;1.90;;;;;;;21.96;48.15;100917.34;5054092;28;20037;-61
2023/08/28 05:42:14;;;;;;;3.33;2.20;;;;;;;22.11;48.30;100925.38;5054880;28;20025;-61
2023/08/28 05:44:40;;;;;;;2.90;1.85;;;;;;;22.27;47.47;100916.03;5053577;28;20043;-61
2023/08/28 05:47:06;;;;;;;6.25;2.22;;;;;;;22.40;47.03;100919.66;5055127;28;20044;-61
2023/08/28 05:49:31;;;;;;;6.43;2.28;;;;;;;22.56;47.87;100922.03;5054729;28;20041;-61
2023/08/28 05:51:56;;;;;;;5.55;2.78;;;;;;;22.72;46.96;100926.31;5053429;28;20037;-61
2023/08/28 05:54:22;;;;;;;3.55;2.00;;;;;;;22.87;46.64;100932.44;5052829;28;20036;-61
2023/08/28 05:56:47;;;;;;;3.88;2.10;;;;;;;22.95;47.57;100936.84;5054548;28;20038;-61
2023/08/28 05:59:12;;;;;;;5.28;2.50;;;;;;;22.92;47.15;100945.50;5054766;28;20033;-61
2023/08/28 06:01:38;;;;;;;3.70;2.05;;;;;;;22.85;47.12;100947.34;5053348;28;20032;-61
2023/08/28 06:04:03;;;;;;;9.20;2.40;;;;;;;22.81;47.72;100954.28;5053235;28;20033;-61
2023/08/28 06:06:29;;;;;;;4.97;1.75;;;;;;;22.80;47.84;100953.44;5054527;28;20083;-61
2023/08/28 06:08:54;;;;;;;4.10;2.10;;;;;;;22.77;47.47;100944.81;5054326;28;20516;-61
2023/08/28 06:11:20;;;;;;;6.25;2.38;;;;;;;22.79;47.84;100949.03;5054464;28;20037;-61
2023/08/28 06:13:46;;;;;;;4.50;1.83;;;;;;;22.81;47.12;100946.09;5036607;28;20156;-61
2023/08/28 06:16:11;;;;;;;5.93;2.15;;;;;;;22.80;47.47;100945.25;5054492;28;20044;-62
2023/08/28 06:18:37;;;;;;;5.13;2.10;;;;;;;22.81;47.79;100940.63;5036633;28;20032;-61
2023/08/28 06:21:02;;;;;;;5.00;2.00;;;;;;;22.79;47.12;100948.16;5054346;28;20033;-61
2023/08/28 06:23:27;;;;;;;7.43;2.78;;;;;;;22.79;47.68;100953.63;5054056;28;20124;-61
2023/08/28 06:25:53;;;;;;;3.85;1.63;;;;;;;22.79;47.27;100950.91;5052795;28;20037;-61
2023/08/28 06:28:19;;;;;;;9.90;1.90;;;;;;;22.84;47.82;100962.06;5036181;28;20484;-61
2023/08/28 06:30:44;;;;;;;4.38;1.92;;;;;;;22.83;47.40;100960.38;5052835;28;20139;-61
2023/08/28 06:33:09;;;;;;;8.50;2.55;;;;;;;22.90;47.79;100961.22;5053982;28;20029;-61
2023/08/28 06:35:35;;;;;;;5.85;2.28;;;;;;;22.93;47.37;100952.63;5052501;28;20036;-61
2023/08/28 06:38:00;;;;;;;11.77;2.92;;;;;;;22.97;47.38;100952.03;5052745;28;20036;-61
2023/08/28 06:40:26;;;;;;;7.20;2.55;;;;;;;23.03;47.38;100955.81;5053541;28;20052;-61
2023/08/28 06:42:51;;;;;;;8.15;2.40;;;;;;;23.08;47.20;100947.84;5052598;28;20029;-61
2023/08/28 06:45:16;;;;;;;6.53;4.35;;;;;;;23.12;46.76;100954.56;5053748;28;20060;-61
2023/08/28 06:47:42;;;;;;;4.55;2.42;;;;;;;23.15;46.88;100957.72;5052425;28;20025;-60
2023/08/28 06:50:07;;;;;;;4.28;2.33;;;;;;;23.16;47.69;100956.69;5053385;28;20033;-62
2023/08/28 06:52:33;;;;;;;8.05;3.25;;;;;;;23.17;47.42;100957.53;5051979;28;20033;-61
2023/08/28 06:54:58;;;;;;;6.38;2.17;;;;;;;23.22;46.47;100954.16;5053731;28;20560;-61
2023/08/28 06:57:23;;;;;;;7.18;2.25;;;;;;;23.25;47.37;100954.59;5052355;28;20565;-61
2023/08/28 06:59:49;;;;;;;11.90;2.60;;;;;;;23.29;46.61;100949.53;5052265;28;20040;-61
2023/08/28 07:02:15;;;;;;;8.02;2.83;;;;;;;23.37;47.32;100958.38;5053664;28;20055;-61
2023/08/28 07:04:40;;;;;;;6.07;3.10;;;;;;;23.43;47.44;100952.09;5053193;28;20033;-61
2023/08/28 07:07:06;;;;;;;8.60;2.80;;;;;;;23.48;46.66;100955.03;5052316;28;20052;-61
2023/08/28 07:09:31;;;;;;;5.75;2.60;;;;;;;23.54;47.05;100954.19;5035580;28;20072;-61
2023/08/28 07:11:57;;;;;;;9.52;2.85;;;;;;;23.57;47.23;100953.78;5051828;28;20033;-61
2023/08/28 07:14:22;;;;;;;8.05;2.72;;;;;;;23.59;46.32;100961.81;5052183;28;20033;-61
2023/08/28 07:16:48;;;;;;;10.02;3.00;;;;;;;23.58;46.60;100944.53;5053356;28;20048;-61
2023/08/28 07:19:14;;;;;;;7.45;2.50;;;;;;;23.67;47.14;100951.44;5053225;28;20526;-61
2023/08/28 07:21:39;;;;;;;7.75;3.47;;;;;;;23.73;46.64;100953.34;5051924;28;20040;-61
2023/08/28 07:24:04;;;;;;;5.28;2.72;;;;;;;23.84;47.17;100960.09;5052748;28;20071;-61
2023/08/28 07:26:30;;;;;;;10.88;2.72;;;;;;;23.94;46.29;100960.50;5051729;28;20079;-61
2023/08/28 07:28:56;;;;;;;11.05;3.28;;;;;;;24.01;47.30;100955.84;5052926;28;20033;-61
2023/08/28 07:31:22;;;;;;;6.70;2.70;;;;;;;24.03;46.46;100961.97;5053109;28;20037;-61
2023/08/28 07:33:48;;;;;;;9.32;2.95;;;;;;;24.05;46.60;100961.72;5052996;28;20060;-62
2023/08/28 07:36:20;;;;;;;4.82;2.33;;;;;;;24.10;46.75;100961.97;5052832;28;20094;-61
2023/08/28 07:38:46;;;;;;;5.78;3.22;;;;;;;24.16;46.42;100964.69;5051837;28;20033;-61
2023/08/28 07:41:12;;;;;;;7.70;2.67;;;;;;;24.23;46.60;100953.72;5051841;28;20112;-61
2023/08/28 07:43:37;;;;;;;8.05;2.78;;;;;;;24.28;46.60;100960.25;5052955;28;20493;-61
2023/08/28 07:46:04;;;;;;;4.55;2.55;;;;;;;24.36;46.53;100953.69;5051598;28;20396;-61
2023/08/28 07:48:29;;;;;;;12.27;3.25;;;;;;;24.42;46.20;100958.28;5051714;28;20033;-61
2023/08/28 07:50:55;;;;;;;7.75;3.30;;;;;;;24.52;46.58;100961.41;5052833;28;20068;-61
2023/08/28 07:53:21;;;;;;;12.07;3.33;;;;;;;24.61;46.11;100962.84;5051475;28;20060;-61
2023/08/28 07:55:46;;;;;;;20.88;4.90;;;;;;;24.78;45.91;100960.44;5052782;28;20029;-61
2023/08/28 07:58:11;;;;;;;7.47;3.20;;;;;;;24.89;46.10;100966.13;5052733;28;20116;-62
2023/08/28 08:00:38;;;;;;;8.13;3.55;;;;;;;24.99;45.93;100960.13;5052676;28;20063;-61
2023/08/28 08:03:04;;;;;;;8.30;3.60;;;;;;;25.05;45.73;100952.94;5051571;28;20119;-61
2023/08/28 08:05:30;;;;;;;6.93;2.90;;;;;;;25.20;45.52;100964.44;5053928;28;20593;-62
2023/08/28 08:07:56;;;;;;;8.13;3.17;;;;;;;25.32;45.82;100971.72;5055709;28;20033;-61
2023/08/28 08:10:21;;;;;;;10.18;3.17;;;;;;;25.38;45.67;100970.84;5055284;28;20134;-62
2023/08/28 08:12:46;;;;;;;7.07;3.17;;;;;;;25.46;45.63;100972.50;5056565;28;20052;-61
2023/08/28 08:15:12;;;;;;;10.73;3.30;;;;;;;25.54;45.24;100964.03;5056614;28;20033;-61
2023/08/28 08:17:37;;;;;;;9.63;3.80;;;;;;;25.58;45.57;100970.72;5055260;28;20037;-62
2023/08/28 08:20:10;;;;;;;12.98;3.75;;;;;;;25.63;44.94;100984.59;5055334;28;20116;-61
2023/08/28 08:22:36;;;;;;;;;;;;;;;25.69;45.61;100982.88;5055548;28;20400;-62
2023/08/28 08:25:02;;;;;;;7.85;2.67;;;;;;;25.73;45.29;100973.97;5055465;28;19921;-64
2023/08/28 08:27:28;;;;;;;7.68;2.90;;;;;;;25.82;45.19;100982.78;5056282;28;20092;-65
2023/08/28 08:29:53;;;;;;;7.43;3.10;;;;;;;25.89;44.69;100981.63;5056093;28;20026;-64
2023/08/28 08:32:18;;;;;;;8.30;2.50;;;;;;;25.97;44.71;100984.09;5056071;28;20036;-68
2023/08/28 08:34:44;;;;;;;8.95;4.03;;;;;;;26.10;44.60;100979.53;5056064;28;20041;-64
2023/08/28 08:37:10;;;;;;;6.75;3.25;;;;;;;26.22;44.71;100978.59;5054857;28;20040;-64
2023/08/28 08:39:35;;;;;;;16.30;3.88;;;;;;;26.35;44.17;100977.63;5054790;28;20033;-64
2023/08/28 08:42:00;;;;;;;10.70;4.10;;;;;;;26.49;43.72;100973.66;5055768;28;20087;-64
2023/08/28 08:44:26;;;;;;;6.18;2.92;;;;;;;26.65;44.27;100967.53;5054702;28;20488;-64
2023/08/28 08:46:52;;;;;;;6.07;2.58;;;;;;;26.78;44.05;100964.63;5055945;28;20075;-64
2023/08/28 08:49:20;;;;;;;5.88;2.85;;;;;;;26.86;43.10;100969.78;5037989;28;20075;-64
2023/08/28 08:51:46;;;;;;;6.90;3.38;;;;;;;26.94;43.55;100965.91;5055958;28;20041;-64
2023/08/28 08:54:19;;;;;;;7.47;3.05;;;;;;;27.03;43.32;100965.31;5054413;28;20526;-65
2023/08/28 08:56:47;;;;;;;9.40;3.75;;;;;;;27.22;43.16;100965.28;5054432;28;20518;-65
2023/08/28 08:59:12;;;;;;;5.63;3.13;;;;;;;27.36;43.33;100967.56;5037701;28;20443;-65
2023/08/28 09:01:38;;;;;;;7.97;3.25;;;;;;;27.42;42.98;100968.56;5055521;28;20033;-65
2023/08/28 09:04:04;;;;;;;10.10;3.72;;;;;;;27.45;43.51;100968.09;5054374;28;20036;-65
2023/08/28 09:06:33;;;;;;;9.88;3.08;;;;;;;27.51;43.34;100976.25;5055229;28;20583;-65
2023/08/28 09:08:58;;;;;;;9.25;3.97;;;;;;;27.59;42.83;100966.81;5054072;28;20017;-65
2023/08/28 09:11:24;;;;;;;8.38;3.58;;;;;;;27.78;42.91;100973.06;5055498;28;20038;-65
2023/08/28 09:13:49;;;;;;;8.77;3.63;;;;;;;27.90;43.18;100969.22;5054623;28;20354;-65
2023/08/28 09:16:18;;;;;;;9.52;4.60;;;;;;;28.07;42.27;100972.13;5054709;28;20021;-65
2023/08/28 09:18:43;;;;;;;14.88;3.97;;;;;;;28.23;42.32;100969.47;5054069;28;20025;-65
2023/08/28 09:21:10;;;;;;;7.13;3.30;;;;;;;28.31;42.17;100971.88;5054193;28;20040;-65
2023/08/28 09:23:46;;;;;;;8.77;3.50;;;;;;;28.40;42.43;100965.97;5053826;28;20072;-65
2023/08/28 09:26:22;;;;;;;11.65;4.97;;;;;;;28.55;42.14;100963.56;5055048;28;20059;-65
2023/08/28 09:29:06;;;;;;;8.18;3.10;;;;;;;28.62;42.32;100964.25;5053676;28;20049;-65
2023/08/28 09:31:32;;;;;;;7.05;3.38;;;;;;;28.63;42.17;100961.28;5053789;28;20492;-65
2023/08/28 09:33:58;;;;;;;8.13;3.83;;;;;;;28.70;41.54;100961.97;5053783;28;20040;-64
2023/08/28 09:36:24;;;;;;;6.70;3.17;;;;;;;28.71;41.78;100966.41;5037342;28;20116;-61
2023/08/28 09:38:50;;;;;;;7.95;3.60;;;;;;;28.65;41.42;100970.16;5053865;28;20033;-61
2023/08/28 09:41:15;;;;;;;6.75;3.72;;;;;;;28.56;41.70;100965.25;5053680;28;20558;-60
2023/08/28 09:43:41;;;;;;;6.22;2.85;;;;;;;28.54;42.13;100967.38;5054811;28;20453;-61
2023/08/28 09:46:06;;;;;;;6.72;2.63;;;;;;;28.56;42.24;100965.25;5053674;28;20036;-61
2023/08/28 09:48:32;;;;;;;8.02;4.00;;;;;;;28.56;41.97;100970.75;5053301;28;20489;-60
2023/08/28 09:51:02;;;;;;;6.47;3.13;;;;;;;28.50;40.85;100961.53;5036919;28;20404;-61
2023/08/28 09:53:29;;;;;;;7.40;4.25;;;;;;;28.97;41.13;100962.25;5054740;28;20404;-61
2023/08/28 09:55:54;;;;;;;6.10;2.75;;;;;;;29.68;40.00;100958.84;5054806;28;20076;-61
2023/08/28 09:58:27;;;;;;;8.02;3.30;;;;;;;29.73;39.76;100961.66;5052718;28;20433;-61
2023/08/28 10:00:55;;;;;;;7.75;2.75;;;;;;;29.61;39.84;100957.34;5036648;28;20025;-61
2023/08/28 10:03:22;;;;;;;5.78;2.70;;;;;;;29.57;40.03;100953.38;5052994;28;20054;-61
2023/08/28 10:05:48;;;;;;;6.78;2.58;;;;;;;29.63;40.71;100944.09;5054377;28;20037;-61
2023/08/28 10:08:14;;;;;;;6.30;2.92;;;;;;;30.13;39.47;100944.91;5036398;28;20040;-62
2023/08/28 10:10:41;;;;;;;6.30;2.22;;;;;;;30.80;38.98;100945.53;5053021;28;20025;-61
2023/08/28 10:13:15;;;;;;;6.95;2.55;;;;;;;31.14;38.44;100932.34;5054161;28;20041;-61
2023/08/28 10:15:49;;;;;;;3.50;1.90;;;;;;;31.03;38.47;100925.88;5035198;28;20493;-61
2023/08/28 10:18:40;;;;;;;4.88;2.42;;;;;;;31.14;38.62;100924.03;5052673;28;20045;-61
2023/08/28 10:21:06;;;;;;;7.97;2.40;;;;;;;31.15;38.63;100922.97;5052689;28;20029;-61
2023/08/28 10:23:33;;;;;;;3.97;1.92;;;;;;;31.28;38.14;100908.66;5052583;28;20045;-61
2023/08/28 10:25:59;;;;;;;2.67;1.30;;;;;;;31.29;37.92;100910.34;5036247;28;20044;-61
2023/08/28 10:28:25;;;;;;;3.97;2.05;;;;;;;31.21;38.44;100918.31;5051878;28;20043;-61
2023/08/28 10:30:51;;;;;;;3.20;2.20;;;;;;;31.20;38.14;100917.47;5052637;28;20108;-61
2023/08/28 10:33:21;;;;;;;9.45;3.33;;;;;;;31.99;37.38;100923.09;5053918;28;20037;-61
2023/08/28 10:35:50;;;;;;;4.15;2.75;;;;;;;32.55;36.46;100908.41;5035967;28;20114;-61
2023/08/28 10:38:16;;;;;;;3.03;2.15;;;;;;;32.45;36.69;100908.38;5053771;28;20115;-61
2023/08/28 10:40:42;;;;;;;5.63;1.92;;;;;;;32.26;37.43;100916.34;5054037;28;20442;-61
2023/08/28 10:43:08;;;;;;;3.88;1.90;;;;;;;32.11;37.01;100923.72;5052542;28;20037;-61
2023/08/28 10:45:35;;;;;;;4.15;2.30;;;;;;;31.94;37.35;100923.06;5036440;28;20033;-61
2023/08/28 10:48:00;;;;;;;6.70;1.80;;;;;;;32.12;36.25;100914.31;5052174;28;20127;-62
2023/08/28 10:50:34;;;;;;;4.63;2.10;;;;;;;32.28;35.89;100914.13;5035553;28;20396;-61
2023/08/28 10:52:59;;;;;;;4.03;2.33;;;;;;;32.22;36.55;100912.41;5035817;28;20033;-61
2023/08/28 10:55:26;;;;;;;2.47;1.23;;;;;;;32.06;36.48;100910.69;5035423;28;20388;-61
2023/08/28 10:57:52;;;;;;;5.38;1.55;;;;;;;31.95;37.09;100919.16;5052567;28;20416;-61
2023/08/28 11:00:18;;;;;;;4.57;1.60;;;;;;;31.83;37.72;100921.34;5052227;28;20032;-61
2023/08/28 11:03:03;;;;;;;6.00;1.35;;;;;;;31.69;36.76;100910.69;5053331;28;20040;-61
2023/08/28 11:05:28;;;;;;;5.22;1.73;;;;;;;32.06;36.13;100909.84;5051461;28;20403;-61
2023/08/28 11:07:55;;;;;;;3.35;1.20;;;;;;;32.51;35.92;100910.06;5053671;28;20033;-61
2023/08/28 11:10:21;;;;;;;3.25;0.90;;;;;;;32.90;35.49;100910.47;5052170;28;20058;-61
2023/08/28 11:13:08;;;;;;;2.67;1.27;;;;;;;33.22;35.78;100907.50;5051975;28;20039;-61
2023/08/28 11:15:40;;;;;;;1.38;1.25;;;;;;;33.30;35.65;100909.72;5053412;28;20059;-62
2023/08/28 11:18:19;;;;;;;4.90;1.50;;;;;;;32.94;35.02;100905.22;5053433;28;20033;-61
2023/08/28 11:20:52;;;;;;;3.53;1.52;;;;;;;32.57;36.08;100900.69;5053374;28;20116;-61
2023/08/28 11:23:33;;;;;;;2.97;0.98;;;;;;;32.27;35.95;100908.84;5052142;28;20057;-61